createdAt,value
2023-05-12T00:00:32.502Z,4.28
2023-05-12T00:01:32.513Z,4.32
2023-05-12T00:02:32.691Z,4.28
2023-05-12T00:03:32.655Z,4.25
2023-05-12T00:04:32.609Z,4.23
2023-05-12T00:05:32.571Z,4.23
2023-05-12T00:06:32.620Z,4.20
2023-05-12T00:07:32.621Z,4.20
2023-05-12T00:08:32.686Z,4.24
2023-05-12T00:09:32.691Z,4.24
2023-05-12T00:10:32.697Z,4.17
2023-05-12T00:11:32.716Z,4.17
2023-05-12T00:12:32.747Z,4.12
2023-05-12T00:13:32.809Z,4.12
2023-05-12T00:14:32.857Z,4.14
2023-05-12T00:15:32.888Z,4.15
2023-05-12T00:16:32.956Z,4.06
2023-05-12T00:17:32.892Z,4.05
2023-05-12T00:18:32.943Z,4.05
2023-05-12T00:19:32.934Z,4.02
2023-05-12T00:20:32.965Z,4.06
2023-05-12T00:21:32.981Z,3.98
2023-05-12T00:22:32.999Z,3.95
2023-05-12T00:23:33.008Z,3.97
2023-05-12T00:24:33.017Z,4.01
2023-05-12T00:25:33.064Z,4.00
2023-05-12T00:26:33.045Z,3.95
2023-05-12T00:27:33.055Z,3.94
2023-05-12T00:28:33.096Z,3.99
2023-05-12T00:29:33.118Z,3.89
2023-05-12T00:30:33.128Z,3.89
2023-05-12T00:31:33.205Z,3.92
2023-05-12T00:32:33.208Z,3.92
2023-05-12T00:33:33.242Z,3.90
2023-05-12T00:34:33.255Z,3.85
2023-05-12T00:35:33.315Z,3.87
2023-05-12T00:36:33.326Z,3.82
2023-05-12T00:37:33.336Z,3.89
2023-05-12T00:38:33.365Z,3.87
2023-05-12T00:39:33.390Z,3.83
2023-05-12T00:40:33.409Z,3.80
2023-05-12T00:41:33.437Z,3.82
2023-05-12T00:42:33.449Z,3.80
2023-05-12T00:43:33.503Z,3.71
2023-05-12T00:44:33.503Z,3.75
2023-05-12T00:45:33.542Z,3.72
2023-05-12T00:46:33.552Z,3.71
2023-05-12T00:47:33.586Z,3.77
2023-05-12T00:48:33.604Z,3.74
2023-05-12T00:49:33.601Z,3.73
2023-05-12T00:50:33.613Z,3.70
2023-05-12T00:51:33.676Z,3.72
2023-05-12T00:52:33.708Z,3.66
2023-05-12T00:53:47.696Z,3.69
2023-05-12T00:54:34.730Z,3.70
2023-05-12T00:55:33.693Z,3.70
2023-05-12T00:56:33.702Z,3.70
2023-05-12T00:57:33.694Z,3.68
2023-05-12T00:58:33.694Z,3.68
2023-05-12T00:59:33.740Z,3.67
2023-05-12T01:00:33.688Z,3.67
2023-05-12T01:01:33.837Z,3.66
2023-05-12T01:02:33.767Z,3.65
2023-05-12T01:03:33.969Z,3.64
2023-05-12T01:04:33.668Z,3.57
2023-05-12T01:05:34.247Z,3.57
2023-05-12T01:06:33.733Z,3.58
2023-05-12T01:07:33.714Z,3.57
2023-05-12T01:08:33.702Z,3.57
2023-05-12T01:09:33.683Z,3.57
2023-05-12T01:10:33.712Z,3.57
2023-05-12T01:11:33.721Z,3.50
2023-05-12T01:12:33.721Z,3.47
2023-05-12T01:13:33.721Z,3.49
2023-05-12T01:14:33.682Z,3.48
2023-05-12T01:15:33.691Z,3.49
2023-05-12T01:16:33.688Z,3.50
2023-05-12T01:17:33.833Z,3.43
2023-05-12T01:18:33.882Z,3.38
2023-05-12T01:19:33.779Z,3.37
2023-05-12T01:20:33.805Z,3.40
2023-05-12T01:21:33.850Z,3.37
2023-05-12T01:22:33.978Z,3.39
2023-05-12T01:23:33.857Z,3.38
2023-05-12T01:24:33.928Z,3.39
2023-05-12T01:25:33.978Z,3.37
2023-05-12T01:26:34.001Z,3.33
2023-05-12T01:27:34.015Z,3.33
2023-05-12T01:28:34.038Z,3.32
2023-05-12T01:29:34.102Z,3.31
2023-05-12T01:30:34.088Z,3.32
2023-05-12T01:31:34.166Z,3.27
2023-05-12T01:32:34.186Z,3.28
2023-05-12T01:33:34.182Z,3.27
2023-05-12T01:34:34.183Z,3.28
2023-05-12T01:35:34.212Z,3.25
2023-05-12T01:36:34.265Z,3.24
2023-05-12T01:37:34.264Z,3.19
2023-05-12T01:38:34.309Z,3.21
2023-05-12T01:39:34.323Z,3.16
2023-05-12T01:40:34.333Z,3.20
2023-05-12T01:41:34.380Z,3.21
2023-05-12T01:42:34.352Z,3.21
2023-05-12T01:43:34.393Z,3.18
2023-05-12T01:44:34.451Z,3.18
2023-05-12T01:45:34.463Z,3.17
2023-05-12T01:46:34.545Z,3.20
2023-05-12T01:47:34.572Z,3.16
2023-05-12T01:48:34.567Z,3.11
2023-05-12T01:49:34.638Z,3.12
2023-05-12T01:50:34.639Z,3.10
2023-05-12T01:51:34.656Z,3.06
2023-05-12T01:52:34.734Z,3.08
2023-05-12T01:53:34.698Z,3.08
2023-05-12T01:54:34.732Z,3.06
2023-05-12T01:55:34.751Z,3.07
2023-05-12T01:56:34.753Z,3.07
2023-05-12T01:57:34.810Z,3.12
2023-05-12T01:58:34.884Z,3.07
2023-05-12T01:59:34.882Z,3.09
2023-05-12T02:00:34.922Z,3.07
2023-05-12T02:01:34.935Z,3.06
2023-05-12T02:02:35.035Z,3.04
2023-05-12T02:03:35.071Z,3.02
2023-05-12T02:04:35.020Z,3.02
2023-05-12T02:05:35.133Z,3.01
2023-05-12T02:06:35.094Z,2.98
2023-05-12T02:07:35.105Z,2.96
2023-05-12T02:08:35.125Z,3.00
2023-05-12T02:09:35.148Z,2.99
2023-05-12T02:10:35.150Z,3.01
2023-05-12T02:11:35.195Z,2.99
2023-05-12T02:12:35.234Z,2.95
2023-05-12T02:13:35.246Z,2.94
2023-05-12T02:14:35.235Z,2.93
2023-05-12T02:15:35.300Z,2.93
2023-05-12T02:16:35.327Z,2.93
2023-05-12T02:17:35.358Z,2.86
2023-05-12T02:18:35.371Z,2.88
2023-05-12T02:19:35.469Z,2.89
2023-05-12T02:20:35.378Z,2.85
2023-05-12T02:21:35.444Z,2.86
2023-05-12T02:22:35.441Z,2.84
2023-05-12T02:23:35.491Z,2.86
2023-05-12T02:24:35.481Z,2.84
2023-05-12T02:25:35.499Z,2.82
2023-05-12T02:26:35.540Z,2.81
2023-05-12T02:27:35.581Z,2.83
2023-05-12T02:28:35.577Z,2.76
2023-05-12T02:29:35.617Z,2.81
2023-05-12T02:30:35.603Z,2.77
2023-05-12T02:31:35.662Z,2.77
2023-05-12T02:32:35.713Z,2.84
2023-05-12T02:33:35.716Z,2.79
2023-05-12T02:34:35.730Z,2.74
2023-05-12T02:35:35.759Z,2.72
2023-05-12T02:36:35.791Z,2.75
2023-05-12T02:37:35.814Z,2.75
2023-05-12T02:38:35.821Z,2.75
2023-05-12T02:39:35.834Z,2.72
2023-05-12T02:40:35.903Z,2.67
2023-05-12T02:41:35.889Z,2.71
2023-05-12T02:42:35.917Z,2.71
2023-05-12T02:43:35.940Z,2.69
2023-05-12T02:44:35.968Z,2.69
2023-05-12T02:45:35.985Z,2.67
2023-05-12T02:46:35.989Z,2.68
2023-05-12T02:47:36.034Z,2.66
2023-05-12T02:48:36.060Z,2.66
2023-05-12T02:49:36.067Z,2.67
2023-05-12T02:50:36.080Z,2.67
2023-05-12T02:51:36.137Z,2.68
2023-05-12T02:52:36.162Z,2.65
2023-05-12T02:53:36.163Z,2.63
2023-05-12T02:54:36.211Z,2.60
2023-05-12T02:55:36.226Z,2.62
2023-05-12T02:56:36.259Z,2.62
2023-05-12T02:57:36.279Z,2.57
2023-05-12T02:58:36.276Z,2.57
2023-05-12T02:59:36.347Z,2.59
2023-05-12T03:00:36.397Z,2.58
2023-05-12T03:01:36.446Z,2.59
2023-05-12T03:02:36.555Z,2.58
2023-05-12T03:03:36.540Z,2.59
2023-05-12T03:04:36.471Z,2.59
2023-05-12T03:05:36.497Z,2.59
2023-05-12T03:06:36.532Z,2.58
2023-05-12T03:07:36.558Z,2.54
2023-05-12T03:08:36.560Z,2.55
2023-05-12T03:09:36.620Z,2.54
2023-05-12T03:10:36.625Z,2.50
2023-05-12T03:11:36.690Z,2.51
2023-05-12T03:12:36.654Z,2.51
2023-05-12T03:13:36.685Z,2.48
2023-05-12T03:14:36.744Z,2.50
2023-05-12T03:15:36.749Z,2.49
2023-05-12T03:16:36.816Z,2.50
2023-05-12T03:17:36.895Z,2.49
2023-05-12T03:18:36.864Z,2.47
2023-05-12T03:19:36.837Z,2.42
2023-05-12T03:20:36.880Z,2.45
2023-05-12T03:21:36.869Z,2.47
2023-05-12T03:22:36.921Z,2.43
2023-05-12T03:23:36.938Z,2.42
2023-05-12T03:24:36.978Z,2.44
2023-05-12T03:25:36.996Z,2.43
2023-05-12T03:26:37.019Z,2.39
2023-05-12T03:27:37.029Z,2.41
2023-05-12T03:28:37.114Z,2.43
2023-05-12T03:29:37.184Z,2.43
2023-05-12T03:30:37.188Z,2.45
2023-05-12T03:31:37.239Z,2.45
2023-05-12T03:32:37.208Z,2.42
2023-05-12T03:33:37.279Z,2.39
2023-05-12T03:34:37.311Z,2.40
2023-05-12T03:35:37.339Z,2.42
2023-05-12T03:36:37.355Z,2.37
2023-05-12T03:37:37.387Z,2.37
2023-05-12T03:38:37.429Z,2.38
2023-05-12T03:39:37.447Z,2.37
2023-05-12T03:40:37.474Z,2.40
2023-05-12T03:41:37.506Z,2.37
2023-05-12T03:42:37.533Z,2.36
2023-05-12T03:43:37.576Z,2.35
2023-05-12T03:44:37.584Z,2.34
2023-05-12T03:45:37.636Z,2.33
2023-05-12T03:46:37.787Z,2.33
2023-05-12T03:47:37.767Z,2.33
2023-05-12T03:48:37.732Z,2.34
2023-05-12T03:49:37.748Z,2.35
2023-05-12T03:50:37.820Z,2.35
2023-05-12T03:51:37.818Z,2.30
2023-05-12T03:52:37.876Z,2.29
2023-05-12T03:53:37.929Z,2.27
2023-05-12T03:54:38.133Z,2.33
2023-05-12T03:55:38.021Z,2.32
2023-05-12T03:56:37.993Z,2.26
2023-05-12T03:57:38.086Z,2.29
2023-05-12T03:58:38.095Z,2.29
2023-05-12T03:59:38.154Z,2.32
2023-05-12T04:00:39.027Z,2.30
2023-05-12T04:01:38.216Z,2.28
2023-05-12T04:02:38.295Z,2.27
2023-05-12T04:03:38.293Z,2.26
2023-05-12T04:04:38.289Z,2.25
2023-05-12T04:05:38.313Z,2.23
2023-05-12T04:06:38.314Z,2.21
2023-05-12T04:07:38.376Z,2.24
2023-05-12T04:08:41.036Z,2.23
2023-05-12T04:09:38.380Z,2.25
2023-05-12T04:10:38.407Z,2.26
2023-05-12T04:11:38.422Z,2.25
2023-05-12T04:12:38.395Z,2.23
2023-05-12T04:13:38.405Z,2.21
2023-05-12T04:14:42.876Z,2.22
2023-05-12T04:15:38.414Z,2.22
2023-05-12T04:16:38.485Z,2.22
2023-05-12T04:17:38.484Z,2.23
2023-05-12T04:18:38.461Z,2.22
2023-05-12T04:19:38.449Z,2.23
2023-05-12T04:20:38.463Z,2.24
2023-05-12T04:21:38.437Z,2.24
2023-05-12T04:22:38.401Z,2.24
2023-05-12T04:23:38.433Z,2.25
2023-05-12T04:24:38.471Z,2.22
2023-05-12T04:25:38.436Z,2.22
2023-05-12T04:26:38.421Z,2.21
2023-05-12T04:27:38.415Z,2.19
2023-05-12T04:28:38.423Z,2.21
2023-05-12T04:29:38.469Z,2.16
2023-05-12T04:30:38.483Z,2.19
2023-05-12T04:31:38.468Z,2.21
2023-05-12T04:32:38.481Z,2.17
2023-05-12T04:33:38.492Z,2.16
2023-05-12T04:34:38.537Z,2.16
2023-05-12T04:35:38.517Z,2.15
2023-05-12T04:36:38.637Z,2.13
2023-05-12T04:37:38.568Z,2.14
2023-05-12T04:38:38.570Z,2.13
2023-05-12T04:39:38.589Z,2.12
2023-05-12T04:40:38.637Z,2.17
2023-05-12T04:41:38.653Z,2.17
2023-05-12T04:42:38.696Z,2.16
2023-05-12T04:44:38.701Z,2.17
2023-05-12T04:45:38.708Z,2.19
2023-05-12T04:46:38.754Z,2.17
2023-05-12T04:47:38.728Z,2.17
2023-05-12T04:48:38.718Z,2.18
2023-05-12T04:49:38.712Z,2.17
2023-05-12T04:50:38.713Z,2.16
2023-05-12T04:51:38.768Z,2.13
2023-05-12T04:52:38.711Z,2.19
2023-05-12T04:53:38.693Z,2.18
2023-05-12T04:54:38.683Z,2.20
2023-05-12T04:55:38.732Z,2.20
2023-05-12T04:56:38.664Z,2.22
2023-05-12T04:57:38.648Z,2.23
2023-05-12T04:58:38.677Z,2.23
2023-05-12T04:59:41.011Z,2.29
2023-05-12T05:00:45.678Z,2.29
2023-05-12T05:01:38.697Z,2.30
2023-05-12T05:02:38.727Z,2.31
2023-05-12T05:03:38.887Z,2.32
2023-05-12T05:04:38.628Z,2.33
2023-05-12T05:05:38.643Z,2.48
2023-05-12T05:06:38.640Z,2.45
2023-05-12T05:07:38.656Z,2.43
2023-05-12T05:08:38.625Z,2.44
2023-05-12T05:09:38.630Z,2.49
2023-05-12T05:10:38.669Z,2.48
2023-05-12T05:11:38.645Z,2.45
2023-05-12T05:12:38.611Z,2.42
2023-05-12T05:13:38.622Z,2.49
2023-05-12T05:14:38.578Z,2.46
2023-05-12T05:15:38.682Z,2.47
2023-05-12T05:16:38.615Z,2.49
2023-05-12T05:17:38.615Z,2.50
2023-05-12T05:18:38.610Z,2.47
2023-05-12T05:19:53.127Z,2.41
2023-05-12T05:20:40.953Z,2.41
2023-05-12T05:21:38.555Z,2.41
2023-05-12T05:22:38.540Z,2.40
2023-05-12T05:23:38.514Z,2.33
2023-05-12T05:24:38.515Z,2.30
2023-05-12T05:25:38.548Z,2.28
2023-05-12T05:26:38.524Z,2.26
2023-05-12T05:27:38.549Z,2.32
2023-05-12T05:28:38.566Z,2.42
2023-05-12T05:29:38.501Z,2.43
2023-05-12T05:30:38.516Z,2.42
2023-05-12T05:31:38.543Z,2.41
2023-05-12T05:32:38.581Z,2.28
2023-05-12T05:33:38.769Z,2.12
2023-05-12T05:34:38.728Z,1.94
2023-05-12T05:35:39.393Z,1.81
2023-05-12T05:36:38.630Z,1.74
2023-05-12T05:37:38.686Z,1.72
2023-05-12T05:38:38.687Z,1.66
2023-05-12T05:39:38.662Z,1.70
2023-05-12T05:40:52.189Z,1.65
2023-05-12T05:41:39.736Z,1.65
2023-05-12T05:42:38.662Z,1.53
2023-05-12T05:43:38.671Z,1.43
2023-05-12T05:44:38.666Z,1.34
2023-05-12T05:45:45.865Z,1.32
2023-05-12T05:46:38.797Z,1.43
2023-05-12T05:47:38.736Z,1.30
2023-05-12T05:48:38.702Z,1.17
2023-05-12T05:49:38.662Z,1.07
2023-05-12T05:50:38.703Z,0.88
2023-05-12T05:51:38.699Z,0.76
2023-05-12T05:52:38.668Z,0.70
2023-05-12T05:53:38.720Z,0.62
2023-05-12T05:54:38.683Z,0.57
2023-05-12T05:55:38.923Z,0.51
2023-05-12T05:56:38.668Z,0.50
2023-05-12T05:57:38.698Z,0.50
2023-05-12T05:58:39.458Z,0.50
2023-05-12T05:59:38.710Z,0.50
2023-05-12T06:00:38.710Z,0.50
2023-05-12T06:01:38.764Z,0.50
2023-05-12T06:02:38.863Z,0.50
2023-05-12T06:03:38.906Z,0.50
2023-05-12T06:04:38.766Z,0.50
2023-05-12T06:05:38.760Z,0.50
2023-05-12T06:06:38.772Z,0.55
2023-05-12T06:07:38.757Z,0.60
2023-05-12T06:08:38.779Z,0.58
2023-05-12T06:09:38.830Z,0.52
2023-05-12T06:10:38.806Z,0.50
2023-05-12T06:11:38.841Z,0.50
2023-05-12T06:12:38.857Z,0.51
2023-05-12T06:13:38.855Z,0.52
2023-05-12T06:14:38.854Z,0.50
2023-05-12T06:15:38.870Z,0.50
2023-05-12T06:16:38.917Z,0.50
2023-05-12T06:17:38.974Z,0.52
2023-05-12T06:18:39.061Z,0.50
2023-05-12T06:19:38.993Z,0.50
2023-05-12T06:20:39.060Z,0.52
2023-05-12T06:21:39.132Z,0.53
2023-05-12T06:22:39.127Z,0.56
2023-05-12T06:23:39.224Z,0.53
2023-05-12T06:24:39.250Z,0.54
2023-05-12T06:25:39.298Z,0.52
2023-05-12T06:26:39.353Z,0.52
2023-05-12T06:27:39.367Z,0.50
2023-05-12T06:28:39.500Z,0.52
2023-05-12T06:29:39.516Z,0.52
2023-05-12T06:30:39.596Z,0.52
2023-05-12T06:31:39.621Z,0.51
2023-05-12T06:32:39.694Z,0.52
2023-05-12T06:33:39.668Z,0.55
2023-05-12T06:34:39.690Z,0.55
2023-05-12T06:35:39.671Z,0.53
2023-05-12T06:36:39.708Z,0.53
2023-05-12T06:37:39.782Z,0.51
2023-05-12T06:38:39.856Z,0.50
2023-05-12T06:39:39.899Z,0.50
2023-05-12T06:40:39.933Z,0.56
2023-05-12T06:41:39.930Z,0.61
2023-05-12T06:42:40.024Z,0.59
2023-05-12T06:43:40.038Z,0.57
2023-05-12T06:44:42.062Z,0.54
2023-05-12T06:45:40.160Z,0.51
2023-05-12T06:46:40.256Z,0.51
2023-05-12T06:47:40.305Z,0.53
2023-05-12T06:48:40.337Z,0.55
2023-05-12T06:49:40.400Z,0.52
2023-05-12T06:50:40.405Z,0.50
2023-05-12T06:51:40.491Z,0.51
2023-05-12T06:52:40.530Z,0.51
2023-05-12T06:53:40.615Z,0.52
2023-05-12T06:54:40.687Z,0.53
2023-05-12T06:55:40.725Z,0.58
2023-05-12T06:56:40.802Z,0.61
2023-05-12T06:57:40.887Z,0.60
2023-05-12T06:58:40.912Z,0.55
2023-05-12T06:59:41.047Z,0.55
2023-05-12T07:00:41.082Z,0.52
2023-05-12T07:01:41.192Z,0.50
2023-05-12T07:02:41.340Z,0.50
2023-05-12T07:03:41.309Z,0.50
2023-05-12T07:04:41.372Z,0.50
2023-05-12T07:05:41.485Z,0.50
2023-05-12T07:06:41.483Z,0.50
2023-05-12T07:07:41.525Z,0.50
2023-05-12T07:08:41.592Z,0.55
2023-05-12T07:09:41.670Z,0.57
2023-05-12T07:10:41.735Z,0.62
2023-05-12T07:11:41.798Z,0.62
2023-05-12T07:12:41.938Z,0.62
2023-05-12T07:13:41.980Z,0.62
2023-05-12T07:14:41.998Z,0.60
2023-05-12T07:15:42.150Z,0.58
2023-05-12T07:16:42.209Z,0.58
2023-05-12T07:17:42.324Z,0.54
2023-05-12T07:18:42.350Z,0.55
2023-05-12T07:19:42.418Z,0.58
2023-05-12T07:20:42.499Z,0.56
2023-05-12T07:21:42.566Z,0.59
2023-05-12T07:22:42.623Z,0.60
2023-05-12T07:23:42.687Z,0.63
2023-05-12T07:24:42.732Z,0.63
2023-05-12T07:25:42.969Z,0.68
2023-05-12T07:26:42.902Z,1.01
2023-05-12T07:27:42.953Z,1.80
2023-05-12T07:28:43.006Z,2.55
2023-05-12T07:29:43.019Z,3.27
2023-05-12T07:30:43.129Z,3.60
2023-05-12T07:31:43.113Z,2.72
2023-05-12T07:32:43.226Z,2.12
2023-05-12T07:33:43.159Z,3.34
2023-05-12T07:34:43.256Z,5.24
2023-05-12T07:35:43.474Z,3.20
2023-05-12T07:36:43.292Z,1.40
2023-05-12T07:37:43.335Z,0.78
2023-05-12T07:38:43.391Z,0.73
2023-05-12T07:39:43.442Z,1.16
2023-05-12T07:40:43.508Z,1.63
2023-05-12T07:41:43.559Z,2.23
2023-05-12T07:42:43.611Z,1.94
2023-05-12T07:43:43.669Z,1.40
2023-05-12T07:44:43.693Z,1.06
2023-05-12T07:45:43.749Z,0.82
2023-05-12T07:46:43.868Z,0.65
2023-05-12T07:47:43.914Z,0.60
2023-05-12T07:48:43.911Z,0.68
2023-05-12T07:49:43.887Z,1.41
2023-05-12T07:50:43.951Z,1.89
2023-05-12T07:51:43.971Z,1.83
2023-05-12T07:52:44.028Z,1.52
2023-05-12T07:53:44.064Z,1.03
2023-05-12T07:54:44.077Z,0.98
2023-05-12T07:55:44.115Z,1.00
2023-05-12T07:56:44.180Z,1.23
2023-05-12T07:57:44.184Z,1.43
2023-05-12T07:58:46.699Z,1.91
2023-05-12T07:59:44.464Z,2.39
2023-05-12T08:00:44.242Z,2.95
2023-05-12T08:01:44.257Z,3.64
2023-05-12T08:02:44.444Z,4.21
2023-05-12T08:03:44.344Z,4.83
2023-05-12T08:04:44.611Z,5.51
2023-05-12T08:05:44.305Z,6.16
2023-05-12T08:06:44.287Z,6.87
2023-05-12T08:07:44.251Z,7.31
2023-05-12T08:08:44.280Z,8.00
2023-05-12T08:09:44.289Z,8.75
2023-05-12T08:10:44.286Z,9.76
2023-05-12T08:11:47.029Z,10.17
2023-05-12T08:12:44.283Z,10.20
2023-05-12T08:13:44.303Z,10.38
2023-05-12T08:14:44.299Z,10.68
2023-05-12T08:15:44.463Z,11.46
2023-05-12T08:16:44.526Z,12.75
2023-05-12T08:17:44.349Z,13.96
2023-05-12T08:18:44.323Z,14.35
2023-05-12T08:19:44.285Z,14.92
2023-05-12T08:20:44.288Z,15.73
2023-05-12T08:21:44.287Z,16.52
2023-05-12T08:22:44.253Z,16.89
2023-05-12T08:23:44.268Z,17.10
2023-05-12T08:24:44.270Z,17.91
2023-05-12T08:25:44.287Z,18.41
2023-05-12T08:26:44.269Z,18.76
2023-05-12T08:27:44.443Z,19.29
2023-05-12T08:28:44.249Z,20.45
2023-05-12T08:29:44.246Z,21.32
2023-05-12T08:30:44.284Z,22.07
2023-05-12T08:31:44.491Z,22.52
2023-05-12T08:32:44.275Z,22.99
2023-05-12T08:33:44.236Z,18.82
2023-05-12T08:34:44.254Z,15.87
2023-05-12T08:35:45.207Z,11.45
2023-05-12T08:36:44.261Z,10.83
2023-05-12T08:37:44.202Z,11.43
2023-05-12T08:38:44.218Z,11.38
2023-05-12T08:39:44.178Z,10.83
2023-05-12T08:40:44.142Z,10.74
2023-05-12T08:41:44.223Z,10.15
2023-05-12T08:42:44.343Z,10.71
2023-05-12T08:43:44.118Z,11.72
2023-05-12T08:44:44.156Z,12.70
2023-05-12T08:45:44.095Z,13.39
2023-05-12T08:46:44.516Z,13.76
2023-05-12T08:47:44.224Z,14.10
2023-05-12T08:48:44.129Z,14.78
2023-05-12T08:49:44.133Z,16.55
2023-05-12T08:50:44.070Z,17.28
2023-05-12T08:51:48.090Z,14.08
2023-05-12T08:52:45.086Z,13.71
2023-05-12T08:53:44.121Z,13.43
2023-05-12T08:54:55.028Z,13.46
2023-05-12T08:55:57.100Z,14.10
2023-05-12T08:57:43.992Z,14.19
2023-05-12T08:58:43.989Z,14.58
2023-05-12T08:59:44.002Z,15.26
2023-05-12T09:00:44.014Z,16.51
2023-05-12T09:01:44.036Z,19.00
2023-05-12T09:02:53.213Z,19.56
2023-05-12T09:03:45.517Z,19.61
2023-05-12T09:04:44.044Z,19.80
2023-05-12T09:05:43.949Z,20.20
2023-05-12T09:06:43.946Z,21.11
2023-05-12T09:07:43.894Z,20.93
2023-05-12T09:08:43.907Z,20.32
2023-05-12T09:09:43.901Z,21.42
2023-05-12T09:10:43.884Z,21.39
2023-05-12T09:11:43.876Z,21.85
2023-05-12T09:12:43.851Z,19.99
2023-05-12T09:13:43.839Z,19.13
2023-05-12T09:14:43.963Z,17.57
2023-05-12T09:15:43.862Z,16.51
2023-05-12T09:16:43.967Z,18.21
2023-05-12T09:17:43.972Z,16.34
2023-05-12T09:18:43.991Z,19.16
2023-05-12T09:19:43.969Z,14.42
2023-05-12T09:20:43.977Z,10.19
2023-05-12T09:21:44.022Z,5.85
2023-05-12T09:22:43.976Z,3.38
2023-05-12T09:23:44.899Z,2.63
2023-05-12T09:24:44.154Z,2.69
2023-05-12T09:25:44.038Z,4.11
2023-05-12T09:26:44.490Z,6.33
2023-05-12T09:27:44.111Z,8.85
2023-05-12T09:28:44.140Z,11.05
2023-05-12T09:29:55.580Z,12.70
2023-05-12T09:30:45.148Z,12.82
2023-05-12T09:31:44.222Z,13.70
2023-05-12T09:32:44.186Z,14.91
2023-05-12T09:33:44.095Z,14.86
2023-05-12T09:34:44.106Z,14.49
2023-05-12T09:35:44.108Z,13.27
2023-05-12T09:36:44.098Z,15.92
2023-05-12T09:37:44.078Z,19.08
2023-05-12T09:38:44.077Z,20.12
2023-05-12T09:39:44.075Z,21.44
2023-05-12T09:40:44.056Z,22.34
2023-05-12T09:41:44.060Z,21.77
2023-05-12T09:42:44.515Z,18.38
2023-05-12T09:43:44.172Z,14.92
2023-05-12T09:44:44.029Z,13.14
2023-05-12T09:45:44.219Z,11.77
2023-05-12T09:46:44.090Z,10.94
2023-05-12T09:47:44.158Z,10.92
2023-05-12T09:48:44.135Z,12.15
2023-05-12T09:49:44.192Z,12.79
2023-05-12T09:50:47.410Z,13.37
2023-05-12T09:51:44.202Z,15.05
2023-05-12T09:52:44.481Z,19.69
2023-05-12T09:53:44.203Z,20.81
2023-05-12T09:54:44.207Z,13.41
2023-05-12T09:55:44.185Z,9.82
2023-05-12T09:56:44.130Z,8.69
2023-05-12T09:57:44.517Z,7.13
2023-05-12T09:58:44.132Z,6.48
2023-05-12T09:59:44.181Z,6.44
2023-05-12T10:01:44.159Z,6.83
2023-05-12T10:02:44.174Z,6.16
2023-05-12T10:03:44.155Z,5.22
2023-05-12T10:04:44.276Z,4.87
2023-05-12T10:05:44.254Z,4.58
2023-05-12T10:06:44.251Z,4.11
2023-05-12T10:07:44.356Z,3.46
2023-05-12T10:08:44.385Z,3.16
2023-05-12T10:09:44.411Z,3.03
2023-05-12T10:10:44.435Z,2.83
2023-05-12T10:11:44.442Z,3.01
2023-05-12T10:12:44.502Z,3.30
2023-05-12T10:13:44.506Z,3.75
2023-05-12T10:14:44.513Z,4.18
2023-05-12T10:15:44.580Z,4.77
2023-05-12T10:16:45.536Z,4.69
2023-05-12T10:17:44.692Z,3.67
2023-05-12T10:18:44.696Z,2.66
2023-05-12T10:19:44.672Z,1.91
2023-05-12T10:20:44.670Z,1.10
2023-05-12T10:21:44.703Z,0.82
2023-05-12T10:22:45.908Z,0.64
2023-05-12T10:23:44.713Z,0.81
2023-05-12T10:24:44.739Z,0.90
2023-05-12T10:25:44.765Z,0.90
2023-05-12T10:26:44.936Z,0.85
2023-05-12T10:27:45.032Z,1.10
2023-05-12T10:28:44.864Z,1.04
2023-05-12T10:29:44.861Z,1.02
2023-05-12T10:30:44.871Z,1.16
2023-05-12T10:31:45.981Z,1.80
2023-05-12T10:32:44.987Z,2.51
2023-05-12T10:33:44.958Z,3.94
2023-05-12T10:34:45.021Z,3.34
2023-05-12T10:35:45.776Z,2.53
2023-05-12T10:36:45.112Z,2.19
2023-05-12T10:37:45.546Z,1.98
2023-05-12T10:38:45.036Z,2.08
2023-05-12T10:39:45.055Z,2.46
2023-05-12T10:40:45.063Z,2.47
2023-05-12T10:41:45.342Z,2.56
2023-05-12T10:42:45.019Z,2.53
2023-05-12T10:43:44.983Z,2.58
2023-05-12T10:44:44.981Z,2.87
2023-05-12T10:45:44.971Z,3.07
2023-05-12T10:46:45.079Z,3.41
2023-05-12T10:47:45.035Z,3.45
2023-05-12T10:48:44.994Z,3.62
2023-05-12T10:49:44.970Z,4.10
2023-05-12T10:50:44.998Z,4.35
2023-05-12T10:51:44.985Z,4.15
2023-05-12T10:52:45.036Z,3.92
2023-05-12T10:53:50.194Z,3.92
2023-05-12T10:54:46.018Z,3.92
2023-05-12T10:55:45.197Z,3.95
2023-05-12T10:56:45.235Z,4.00
2023-05-12T10:57:45.210Z,4.17
2023-05-12T10:58:45.294Z,4.43
2023-05-12T10:59:45.194Z,4.77
2023-05-12T11:00:45.681Z,5.04
2023-05-12T11:01:45.517Z,4.86
2023-05-12T11:02:45.936Z,4.93
2023-05-12T11:03:45.953Z,4.98
2023-05-12T11:04:45.281Z,5.05
2023-05-12T11:05:45.801Z,5.07
2023-05-12T11:06:45.311Z,5.12
2023-05-12T11:07:45.561Z,5.19
2023-05-12T11:08:46.016Z,5.18
2023-05-12T11:09:56.770Z,5.01
2023-05-12T11:10:46.710Z,5.00
2023-05-12T11:11:45.715Z,4.78
2023-05-12T11:12:44.903Z,4.54
2023-05-12T11:13:44.832Z,4.62
2023-05-12T11:14:44.854Z,4.54
2023-05-12T11:15:44.812Z,4.13
2023-05-12T11:16:44.999Z,3.95
2023-05-12T11:17:45.097Z,3.84
2023-05-12T11:18:44.863Z,3.83
2023-05-12T11:19:44.831Z,3.98
2023-05-12T11:20:44.878Z,3.91
2023-05-12T11:21:44.912Z,4.06
2023-05-12T11:22:45.073Z,4.07
2023-05-12T11:23:44.946Z,4.08
2023-05-12T11:24:45.021Z,4.03
2023-05-12T11:25:45.057Z,3.89
2023-05-12T11:26:45.026Z,4.07
2023-05-12T11:27:45.556Z,4.02
2023-05-12T11:28:45.032Z,4.12
2023-05-12T11:29:45.070Z,3.94
2023-05-12T11:30:45.052Z,3.72
2023-05-12T11:31:45.100Z,3.57
2023-05-12T11:32:45.107Z,3.36
2023-05-12T11:33:45.532Z,3.35
2023-05-12T11:34:45.068Z,3.21
2023-05-12T11:35:45.083Z,3.24
2023-05-12T11:36:45.100Z,3.14
2023-05-12T11:37:45.130Z,3.18
2023-05-12T11:38:45.566Z,2.93
2023-05-12T11:39:45.143Z,2.72
2023-05-12T11:40:45.172Z,2.31
2023-05-12T11:41:45.168Z,2.30
2023-05-12T11:42:45.157Z,2.28
2023-05-12T11:43:45.180Z,2.31
2023-05-12T11:44:45.228Z,2.25
2023-05-12T11:45:45.294Z,2.29
2023-05-12T11:46:45.251Z,2.36
2023-05-12T11:47:45.299Z,2.32
2023-05-12T11:48:45.273Z,2.08
2023-05-12T11:49:45.287Z,1.69
2023-05-12T11:50:45.282Z,1.40
2023-05-12T11:51:45.294Z,1.23
2023-05-12T11:52:45.297Z,1.07
2023-05-12T11:53:45.357Z,0.88
2023-05-12T11:54:45.350Z,0.86
2023-05-12T11:55:45.375Z,0.92
2023-05-12T11:56:45.395Z,0.96
2023-05-12T11:57:45.448Z,0.99
2023-05-12T11:58:45.460Z,0.89
2023-05-12T11:59:45.457Z,0.88
2023-05-12T12:00:45.456Z,0.86
2023-05-12T12:01:45.481Z,0.74
2023-05-12T12:02:45.532Z,0.62
2023-05-12T12:03:45.553Z,0.59
2023-05-12T12:04:45.569Z,0.63
2023-05-12T12:05:45.528Z,0.68
2023-05-12T12:06:45.540Z,0.75
2023-05-12T12:07:45.561Z,0.78
2023-05-12T12:08:45.582Z,0.76
2023-05-12T12:09:46.553Z,0.74
2023-05-12T12:10:45.595Z,0.77
2023-05-12T12:11:45.626Z,0.70
2023-05-12T12:12:45.637Z,0.70
2023-05-12T12:13:45.665Z,0.75
2023-05-12T12:14:45.674Z,0.71
2023-05-12T12:15:45.735Z,0.75
2023-05-12T12:16:45.723Z,0.77
2023-05-12T12:17:45.763Z,0.81
2023-05-12T12:18:45.793Z,0.81
2023-05-12T12:19:45.750Z,0.79
2023-05-12T12:20:45.752Z,0.87
2023-05-12T12:21:45.761Z,0.90
2023-05-12T12:22:45.771Z,0.94
2023-05-12T12:23:50.996Z,0.94
2023-05-12T12:24:46.792Z,0.94
2023-05-12T12:25:45.771Z,0.91
2023-05-12T12:26:45.740Z,0.89
2023-05-12T12:27:45.790Z,0.83
2023-05-12T12:28:45.759Z,0.77
2023-05-12T12:29:45.732Z,0.69
2023-05-12T12:30:45.709Z,0.62
2023-05-12T12:31:45.774Z,0.57
2023-05-12T12:32:45.756Z,0.55
2023-05-12T12:33:45.688Z,0.57
2023-05-12T12:34:45.708Z,0.54
2023-05-12T12:35:45.659Z,0.50
2023-05-12T12:36:45.646Z,0.51
2023-05-12T12:37:45.658Z,0.51
2023-05-12T12:38:45.614Z,0.51
2023-05-12T12:39:45.614Z,0.54
2023-05-12T12:40:45.644Z,0.55
2023-05-12T12:41:45.590Z,0.52
2023-05-12T12:42:45.563Z,0.51
2023-05-12T12:43:45.605Z,0.51
2023-05-12T12:44:45.591Z,0.51
2023-05-12T12:45:45.603Z,0.50
2023-05-12T12:46:45.677Z,0.50
2023-05-12T12:47:45.680Z,0.51
2023-05-12T12:48:45.735Z,0.50
2023-05-12T12:49:45.684Z,0.50
2023-05-12T12:50:45.654Z,0.54
2023-05-12T12:51:47.065Z,0.51
2023-05-12T12:52:45.697Z,0.34
2023-05-12T12:53:45.755Z,0.34
2023-05-12T12:54:45.784Z,0.34
2023-05-12T12:55:45.826Z,0.34
2023-05-12T12:56:45.854Z,0.39
2023-05-12T12:57:45.874Z,0.53
2023-05-12T12:58:45.919Z,0.72
2023-05-12T12:59:45.977Z,1.16
2023-05-12T13:00:46.059Z,1.55
2023-05-12T13:01:46.073Z,2.11
2023-05-12T13:02:46.169Z,2.23
2023-05-12T13:03:46.122Z,3.07
2023-05-12T13:04:46.150Z,3.71
2023-05-12T13:05:46.223Z,3.74
2023-05-12T13:06:46.270Z,4.34
2023-05-12T13:07:46.265Z,4.95
2023-05-12T13:08:46.342Z,5.80
2023-05-12T13:09:46.358Z,6.62
2023-05-12T13:10:46.408Z,6.27
2023-05-12T13:11:46.489Z,6.81
2023-05-12T13:12:46.497Z,7.08
2023-05-12T13:13:46.519Z,7.59
2023-05-12T13:14:46.556Z,7.17
2023-05-12T13:15:46.661Z,7.96
2023-05-12T13:16:46.678Z,8.24
2023-05-12T13:17:46.726Z,8.10
2023-05-12T13:18:46.722Z,8.79